createdAt,value
2022-10-22T00:02:27.168Z,21.70
2022-10-22T00:07:22.211Z,21.90
2022-10-22T00:12:17.952Z,23.80
2022-10-22T00:17:13.223Z,24.10
2022-10-22T00:22:10.222Z,26.10
2022-10-22T00:27:06.553Z,23.20
2022-10-22T00:32:02.044Z,23.80
2022-10-22T00:36:57.310Z,20.60
2022-10-22T00:41:54.527Z,24.80
2022-10-22T00:46:49.723Z,21.20
2022-10-22T00:51:44.686Z,22.80
2022-10-22T00:56:40.065Z,22.50
2022-10-22T01:01:35.357Z,21.10
2022-10-22T01:06:33.639Z,20.20
2022-10-22T01:11:43.235Z,21.30
2022-10-22T01:16:48.707Z,23.30
2022-10-22T01:21:49.425Z,20.80
2022-10-22T01:27:03.654Z,23.70
2022-10-22T01:32:05.091Z,20.20
2022-10-22T01:37:02.981Z,21.10
2022-10-22T01:41:58.897Z,20.00
2022-10-22T01:47:03.253Z,20.00
2022-10-22T01:52:15.461Z,26.60
2022-10-22T01:57:24.283Z,23.60
2022-10-22T02:02:36.713Z,22.80
2022-10-22T02:07:38.122Z,19.70
2022-10-22T02:12:37.757Z,24.70
2022-10-22T02:17:37.339Z,19.80
2022-10-22T02:22:34.152Z,21.30
2022-10-22T02:27:33.104Z,19.80
2022-10-22T02:32:35.544Z,21.60
2022-10-22T02:37:31.202Z,18.90
2022-10-22T02:42:28.443Z,22.70
2022-10-22T02:47:23.943Z,21.60
2022-10-22T02:52:19.040Z,21.50
2022-10-22T02:57:14.697Z,19.60
2022-10-22T03:02:09.306Z,20.80
2022-10-22T03:07:04.475Z,21.50
2022-10-22T03:11:59.686Z,20.50
2022-10-22T03:16:54.728Z,21.00
2022-10-22T03:21:56.510Z,18.20
2022-10-22T03:26:52.725Z,22.10
2022-10-22T03:31:47.714Z,21.40
2022-10-22T03:36:43.798Z,19.60
2022-10-22T03:41:38.708Z,19.50
2022-10-22T03:46:33.984Z,22.00
2022-10-22T03:51:29.506Z,22.20
2022-10-22T03:56:25.172Z,21.60
2022-10-22T04:01:19.802Z,17.20
2022-10-22T04:06:15.378Z,18.40
2022-10-22T04:11:12.767Z,21.70
2022-10-22T04:16:12.851Z,21.60
2022-10-22T04:21:10.609Z,17.70
2022-10-22T04:26:07.843Z,16.60
2022-10-22T04:31:09.467Z,17.20
2022-10-22T04:36:12.359Z,21.10
2022-10-22T04:41:16.378Z,16.30
2022-10-22T04:46:15.141Z,18.00
2022-10-22T04:51:13.485Z,15.30
2022-10-22T04:56:16.621Z,15.80
2022-10-22T05:01:17.741Z,18.00
2022-10-22T05:06:14.173Z,16.10
2022-10-22T05:11:19.217Z,20.80
2022-10-22T05:16:15.672Z,20.20
2022-10-22T05:21:13.314Z,18.70
2022-10-22T05:26:10.806Z,15.30
2022-10-22T05:31:08.634Z,19.00
2022-10-22T05:36:06.706Z,19.10
2022-10-22T05:41:08.161Z,19.10
2022-10-22T05:46:06.383Z,17.80
2022-10-22T05:51:05.036Z,19.00
2022-10-22T05:56:04.119Z,16.80
2022-10-22T06:01:05.997Z,14.70
2022-10-22T06:06:07.759Z,16.80
2022-10-22T06:11:02.758Z,15.10
2022-10-22T06:15:58.703Z,19.10
2022-10-22T06:20:53.316Z,15.30
2022-10-22T06:25:58.914Z,15.70
2022-10-22T06:30:53.696Z,17.70
2022-10-22T06:35:48.549Z,17.60
2022-10-22T06:40:44.338Z,19.30
2022-10-22T06:45:39.680Z,21.90
2022-10-22T06:50:35.974Z,20.90
2022-10-22T06:55:31.312Z,23.10
2022-10-22T07:00:26.428Z,20.80
2022-10-22T07:05:21.218Z,20.60
2022-10-22T07:10:16.628Z,21.80
2022-10-22T07:15:13.646Z,20.40
2022-10-22T07:20:12.692Z,19.60
2022-10-22T07:25:09.776Z,18.90
2022-10-22T07:30:06.368Z,18.30
2022-10-22T07:35:01.646Z,20.00
2022-10-22T07:39:58.393Z,21.60
2022-10-22T07:44:56.741Z,19.90
2022-10-22T07:49:51.319Z,16.50
2022-10-22T07:54:46.380Z,20.60
2022-10-22T07:59:40.631Z,19.70
2022-10-22T08:04:36.323Z,21.10
2022-10-22T08:09:31.549Z,21.70
2022-10-22T08:14:27.151Z,20.40
2022-10-22T08:19:21.799Z,20.90
2022-10-22T08:24:18.034Z,23.70
2022-10-22T08:29:13.454Z,21.70
2022-10-22T08:34:08.387Z,21.30
2022-10-22T08:39:02.963Z,22.50
2022-10-22T08:44:28.231Z,21.00
2022-10-22T08:49:28.292Z,18.10
2022-10-22T08:54:36.831Z,21.30
2022-10-22T08:59:42.453Z,21.00
2022-10-22T09:04:47.299Z,19.30
2022-10-22T09:09:50.304Z,20.20
2022-10-22T09:14:45.743Z,24.70
2022-10-22T09:19:55.523Z,24.30
2022-10-22T09:24:59.002Z,24.30
2022-10-22T09:29:54.162Z,24.00
2022-10-22T09:34:50.866Z,22.00
2022-10-22T09:39:51.377Z,23.70
2022-10-22T09:44:53.459Z,25.40
2022-10-22T09:49:48.343Z,24.20
2022-10-22T09:54:44.353Z,22.70
2022-10-22T09:59:42.652Z,20.00
2022-10-22T10:04:46.670Z,21.40
2022-10-22T10:09:42.527Z,24.90
2022-10-22T10:14:54.216Z,25.20
2022-10-22T10:20:22.103Z,16.50
2022-10-22T10:25:41.737Z,26.50
2022-10-22T10:30:48.964Z,30.30
2022-10-22T10:35:58.165Z,21.40
2022-10-22T10:41:00.131Z,25.80
2022-10-22T10:46:12.655Z,24.40
2022-10-22T10:51:26.159Z,23.00
2022-10-22T10:56:39.239Z,26.10
2022-10-22T11:01:50.888Z,26.70
2022-10-22T11:06:46.746Z,28.80
2022-10-22T11:11:50.738Z,23.60
2022-10-22T11:16:53.910Z,20.00
2022-10-22T11:21:57.208Z,29.40
2022-10-22T11:27:00.782Z,28.90
2022-10-22T11:31:57.749Z,23.30
2022-10-22T11:36:55.143Z,20.30
2022-10-22T11:41:52.998Z,28.10
2022-10-22T11:46:57.179Z,24.20
2022-10-22T11:52:05.179Z,32.70
2022-10-22T11:57:21.153Z,30.10
2022-10-22T12:02:40.922Z,22.10
2022-10-22T12:07:54.244Z,30.80
2022-10-22T12:12:57.588Z,30.50
2022-10-22T12:17:59.273Z,32.20
2022-10-22T12:22:54.990Z,31.20
2022-10-22T12:27:54.322Z,34.00
2022-10-22T12:32:51.608Z,27.20
2022-10-22T12:37:51.228Z,34.60
2022-10-22T12:42:51.379Z,32.50
2022-10-22T12:47:50.022Z,33.70
2022-10-22T12:52:45.324Z,39.20
2022-10-22T12:57:40.355Z,36.00
2022-10-22T13:02:35.495Z,30.10
2022-10-22T13:07:42.240Z,36.60
2022-10-22T13:12:38.716Z,34.50
2022-10-22T13:17:49.365Z,35.00
2022-10-22T13:22:59.535Z,34.20
2022-10-22T13:28:00.088Z,26.80
2022-10-22T13:32:58.687Z,24.20
2022-10-22T13:37:53.724Z,28.10
2022-10-22T13:42:49.256Z,23.50
2022-10-22T13:47:51.012Z,29.40
2022-10-22T13:52:50.487Z,25.40
2022-10-22T13:57:45.685Z,28.10
2022-10-22T14:02:41.075Z,26.40
2022-10-22T14:07:36.471Z,27.40
2022-10-22T14:12:31.361Z,18.60
2022-10-22T14:17:26.253Z,22.60
2022-10-22T14:22:30.494Z,14.20
2022-10-22T14:27:25.464Z,30.60
2022-10-22T14:32:21.552Z,30.00
2022-10-22T14:37:19.604Z,26.20
2022-10-22T14:42:16.158Z,26.00
2022-10-22T14:47:11.655Z,29.00
2022-10-22T14:52:07.370Z,31.60
2022-10-22T14:57:05.913Z,24.40
2022-10-22T15:02:01.069Z,30.50
2022-10-22T15:06:55.850Z,31.90
2022-10-22T15:11:52.275Z,25.20
2022-10-22T15:16:47.286Z,22.00
2022-10-22T15:26:41.964Z,26.50
2022-10-22T15:31:49.853Z,28.40
2022-10-22T15:36:44.760Z,26.50
2022-10-22T15:41:40.119Z,28.30
2022-10-22T15:46:36.005Z,30.80
2022-10-22T15:51:30.667Z,32.80
2022-10-22T15:56:27.805Z,30.60
2022-10-22T16:01:23.381Z,34.60
2022-10-22T16:06:20.710Z,31.60
2022-10-22T16:11:15.527Z,32.40
2022-10-22T16:16:11.725Z,30.20
2022-10-22T16:21:11.687Z,36.30
2022-10-22T16:26:07.372Z,28.70
2022-10-22T16:31:06.179Z,35.60
2022-10-22T16:36:01.204Z,33.00
2022-10-22T16:41:07.244Z,41.80
2022-10-22T16:46:02.848Z,32.20
2022-10-22T16:50:59.076Z,31.40
2022-10-22T16:55:53.923Z,42.80
2022-10-22T17:00:49.636Z,40.00
2022-10-22T17:05:45.098Z,32.70
2022-10-22T17:10:40.932Z,42.60
2022-10-22T17:15:37.118Z,38.90
2022-10-22T17:20:32.588Z,21.40
2022-10-22T17:25:41.607Z,29.70
2022-10-22T17:30:40.202Z,28.50
2022-10-22T17:35:39.455Z,40.40
2022-10-22T17:40:35.403Z,31.90
2022-10-22T17:45:30.176Z,31.30
2022-10-22T17:50:25.450Z,33.70
2022-10-22T17:55:20.450Z,38.40
2022-10-22T18:05:19.331Z,34.20
2022-10-22T18:10:15.363Z,31.00
2022-10-22T18:15:12.226Z,34.70
2022-10-22T18:20:12.252Z,35.30
2022-10-22T18:25:11.772Z,41.60
2022-10-22T18:30:11.706Z,27.20
2022-10-22T18:35:09.160Z,19.40
2022-10-22T18:40:05.492Z,29.20
2022-10-22T18:45:00.562Z,31.60
2022-10-22T18:49:55.825Z,32.40
2022-10-22T18:54:50.877Z,36.90
2022-10-22T18:59:45.863Z,31.90
2022-10-22T19:04:41.254Z,30.50
2022-10-22T19:09:36.259Z,28.70
2022-10-22T19:14:31.507Z,25.10
2022-10-22T19:19:26.665Z,28.90
2022-10-22T19:24:22.643Z,27.90
2022-10-22T19:29:19.428Z,28.00
2022-10-22T19:34:14.775Z,20.10
2022-10-22T19:39:10.424Z,25.20
2022-10-22T19:44:05.963Z,26.50
2022-10-22T19:49:03.668Z,22.70
2022-10-22T19:54:04.815Z,21.00
2022-10-22T19:59:00.404Z,26.40
2022-10-22T20:03:55.775Z,22.10
2022-10-22T20:08:55.238Z,21.00
2022-10-22T20:13:52.651Z,20.60
2022-10-22T20:18:47.915Z,17.70
2022-10-22T20:23:43.321Z,21.00
2022-10-22T20:28:39.831Z,12.30
2022-10-22T20:33:34.687Z,18.60
2022-10-22T20:38:30.484Z,19.00
2022-10-22T20:43:25.409Z,15.70
2022-10-22T20:48:20.998Z,18.10
2022-10-22T20:53:16.924Z,16.90
2022-10-22T20:58:12.015Z,13.00
2022-10-22T21:03:06.898Z,15.50
2022-10-22T21:08:04.350Z,15.80
2022-10-22T21:12:59.978Z,17.80
2022-10-22T21:17:55.416Z,14.40
2022-10-22T21:22:50.229Z,14.00
2022-10-22T21:27:44.831Z,12.50
2022-10-22T21:32:40.652Z,17.80
2022-10-22T21:37:35.735Z,14.80
2022-10-22T21:42:30.677Z,11.10
2022-10-22T21:47:26.094Z,12.80
2022-10-22T21:52:22.170Z,19.90
2022-10-22T21:57:17.080Z,14.30
2022-10-22T22:02:12.475Z,16.70
2022-10-22T22:07:07.227Z,19.30
2022-10-22T22:12:02.534Z,20.30
2022-10-22T22:16:57.954Z,19.30
2022-10-22T22:21:53.072Z,20.90
2022-10-22T22:26:48.933Z,14.70
2022-10-22T22:31:45.447Z,18.10
2022-10-22T22:36:43.245Z,19.60
2022-10-22T22:41:38.207Z,17.20
2022-10-22T22:46:33.431Z,16.80
2022-10-22T22:51:28.807Z,16.30
2022-10-22T22:56:28.315Z,20.00
2022-10-22T23:01:26.617Z,14.70
2022-10-22T23:06:22.258Z,21.30
2022-10-22T23:11:17.168Z,15.50
2022-10-22T23:16:17.413Z,18.00
2022-10-22T23:21:16.688Z,22.40
2022-10-22T23:26:14.115Z,22.20
2022-10-22T23:31:12.410Z,19.40
2022-10-22T23:36:08.955Z,19.60
2022-10-22T23:41:04.853Z,20.60
2022-10-22T23:46:00.147Z,16.20
2022-10-22T23:50:54.666Z,14.30
2022-10-22T23:55:49.862Z,18.50
